This is the latest recevied weather packets stored in our database for station/object WB7AAV. If no packets are shown the sender has not sent any weather packets the latest 10 day(s).
| Time | Temp. | Humidity | Pressure | Rain* | Wind** | Luminosity | Snow |
|---|---|---|---|---|---|---|---|
| 1777146954 | 12.78° C | 40% | 1009.7 hPa | 0 mm | - | - | - |
| 1777146360 | 12.22° C | 41% | 1009.6 hPa | 0 mm | - | - | - |
| 1777145755 | 11.67° C | 40% | 1009.7 hPa | 0 mm | - | - | - |
| 1777145454 | 11.67° C | 41% | 1009.6 hPa | 0 mm | - | - | - |
| 1777144855 | 11.67° C | 43% | 1009.9 hPa | 0 mm | - | - | - |
| 1777143952 | 10.56° C | 44% | 1010 hPa | 0 mm | - | - | - |
| 1777143051 | 10.56° C | 46% | 1010.3 hPa | 0 mm | - | - | - |
| 1777142750 | 10° C | 45% | 1010.6 hPa | 0 mm | - | - | - |
| 1777140961 | 8.89° C | 49% | 1010.9 hPa | 0 mm | - | - | - |
| 1777140348 | 8.89° C | 49% | 1011.1 hPa | 0 mm | - | - | - |
| 1777137046 | 6.11° C | 56% | 1012 hPa | 0 mm | - | - | - |
| 1777136749 | 6.11° C | 58% | 1012 hPa | 0 mm | - | - | - |
| 1777134946 | 4.44° C | 62% | 1012.3 hPa | 0 mm | - | - | - |
| 1777134644 | 4.44° C | 63% | 1012.3 hPa | 0 mm | - | - | - |
| 1777133445 | 3.33° C | 67% | 1012.4 hPa | 0 mm | - | - | - |
| 1777132242 | 2.78° C | 69% | 1012.5 hPa | 0 mm | - | - | - |
| 1777128933 | 1.11° C | 75% | 1013.1 hPa | 0 mm | - | - | - |
| 1777128034 | 0.56° C | 75% | 1013.4 hPa | 0 mm | - | - | - |
| 1777127432 | 0.56° C | 77% | 1013.4 hPa | 0 mm | - | - | - |
| 1777126532 | 0° C | 77% | 1013.5 hPa | 0 mm | - | - | - |
| 1777124211 | -0.56° C | 80% | 1013.7 hPa | 0 mm | - | - | - |
| 1777121137 | -0.56° C | 81% | 1013.5 hPa | 0 mm | - | - | - |
| 1777118431 | -0.56° C | 82% | 1013.4 hPa | 0 mm | - | - | - |
| 1777117231 | -0.56° C | 83% | 1013 hPa | 0 mm | - | - | - |
| 1777116630 | 0° C | 83% | 1013.1 hPa | 0 mm | - | - | - |
* Rain latest hour (hover to see other rain measurements)
** Current wind speed in m/s (hover to see current wind gust speed)